Brick, New Jersey
Current Conditions -  °F | °C
As of 7:55 AM on Saturday 01 Nov 2014 (Local Time) from KBLM Reporting Station
Overcast Overcast  
Wind Chill: 38°   Ceiling: 5000
Heat Index: 45°   Visibility: 8mi
Dew Point: 37°   Wind: 13mph
Humidity: 76%   Direction: 10°N
Pressure: 29.81"   Gusts: 20mph
Location:  40.04°N, 74.12°W
Report Text: KBLM 011155Z AUTO 01011G17KT 8SM OVC050 07/03 A2981 RMK AO1 P0003 60027 70033 10100 20070 52017
Loading
Personal Weather Stations






























Interactive Weather Map New forecast layout! Learn more

10-Day Weather Forecast

Advertisements
Track Severe Weather on mobile